Time;durP1;ratioP1;P1;durP2;ratioP2;P2;SDS_P1;SDS_P2;PMS_P1;PMS_P2;Temp;Humidity;BMP_temperature;BMP_pressure;BME280_temperature;BME280_humidity;BME280_pressure;Samples;Min_cycle;Max_cycle;Signal;HPM_P1;HPM_P2
2022/01/15 00:00:36;;;;;;;63.97;13.32;;;6.60;99.90;;;;;;5144799;27;20047;-76
2022/01/15 00:03:06;;;;;;;47.03;11.88;;;6.60;99.90;;;;;;5136799;27;20420;-76
2022/01/15 00:05:33;;;;;;;35.13;11.18;;;6.60;99.90;;;;;;5131778;27;20057;-76
2022/01/15 00:07:59;;;;;;;40.22;12.05;;;6.60;99.90;;;;;;5139367;27;20099;-76
2022/01/15 00:10:27;;;;;;;41.92;11.82;;;6.60;99.90;;;;;;5138934;27;20161;-76
2022/01/15 00:12:58;;;;;;;27.73;10.60;;;6.60;99.90;;;;;;5156282;27;20114;-76
2022/01/15 00:15:29;;;;;;;28.95;10.82;;;6.60;99.90;;;;;;5138373;27;20107;-76
2022/01/15 00:20:24;;;;;;;55.90;12.85;;;6.60;99.90;;;;;;5155651;27;20047;-76
2022/01/15 00:22:51;;;;;;;60.22;12.73;;;6.60;99.90;;;;;;5157091;27;20049;-76
2022/01/15 00:25:19;;;;;;;41.90;11.70;;;6.60;99.90;;;;;;5156223;27;20035;-76
2022/01/15 00:27:45;;;;;;;36.25;11.13;;;6.60;99.90;;;;;;5138501;27;20078;-76
2022/01/15 00:30:13;;;;;;;45.40;12.35;;;6.60;99.90;;;;;;5138091;27;20102;-76
2022/01/15 00:32:39;;;;;;;46.50;12.02;;;6.60;99.90;;;;;;5137703;27;20084;-76
2022/01/15 00:35:07;;;;;;;44.83;12.95;;;6.60;99.90;;;;;;5145897;27;20039;-76
2022/01/15 00:37:34;;;;;;;48.58;11.43;;;6.50;99.90;;;;;;5117618;27;20050;-76
2022/01/15 00:40:01;;;;;;;82.45;15.02;;;6.50;99.90;;;;;;5116898;27;20114;-76
2022/01/15 00:42:28;;;;;;;62.78;14.00;;;6.50;99.90;;;;;;5117340;27;20498;-76
2022/01/15 00:44:56;;;;;;;73.47;14.50;;;6.50;99.90;;;;;;5135804;27;20043;-76
2022/01/15 00:47:22;;;;;;;35.20;11.50;;;6.50;99.90;;;;;;5116504;27;20051;-76
2022/01/15 00:49:48;;;;;;;30.75;11.35;;;6.50;99.90;;;;;;5125506;27;20370;-76
2022/01/15 00:52:13;;;;;;;74.78;13.98;;;6.50;99.90;;;;;;5125156;27;20126;-76
2022/01/15 00:54:39;;;;;;;33.83;12.45;;;6.50;99.90;;;;;;5116402;27;20508;-76
2022/01/15 00:57:05;;;;;;;36.00;12.07;;;6.50;99.90;;;;;;5117061;27;20058;-76
2022/01/15 00:59:31;;;;;;;44.47;12.00;;;6.50;99.90;;;;;;5135755;27;20039;-76
2022/01/15 01:01:56;;;;;;;33.20;11.10;;;6.50;99.90;;;;;;5116304;27;20083;-76
2022/01/15 01:04:22;;;;;;;46.85;11.85;;;6.50;99.90;;;;;;5139957;27;20038;-76
2022/01/15 01:06:48;;;;;;;32.72;10.57;;;6.50;99.90;;;;;;5137733;27;20132;-76
2022/01/15 01:09:14;;;;;;;49.13;11.77;;;6.50;99.90;;;;;;5155085;27;20042;-76
2022/01/15 01:11:46;;;;;;;35.13;11.82;;;6.50;99.90;;;;;;5156099;27;20043;-76
2022/01/15 01:24:33;;;;;;;30.52;11.38;;;6.60;99.90;;;;;;5135235;27;20281;-76
2022/01/15 01:32:15;;;;;;;50.95;12.02;;;6.40;99.90;;;;;;5116623;27;20047;-76
2022/01/15 01:34:43;;;;;;;30.25;10.20;;;6.40;99.90;;;;;;5120968;27;20494;-76
2022/01/15 01:37:20;;;;;;;30.92;10.60;;;6.40;99.90;;;;;;5136859;27;20048;-76
2022/01/15 01:39:53;;;;;;;49.17;10.30;;;6.40;99.90;;;;;;5119986;27;20469;-76
2022/01/15 01:45:11;;;;;;;26.75;8.98;;;6.40;99.90;;;;;;5136349;27;20478;-76
2022/01/15 01:47:41;;;;;;;28.45;10.55;;;6.40;99.90;;;;;;5133321;27;20054;-76
2022/01/15 01:50:19;;;;;;;32.92;10.70;;;6.40;99.90;;;;;;5125390;27;20100;-76
2022/01/15 01:52:47;;;;;;;31.40;9.95;;;6.40;99.90;;;;;;5127856;27;20083;-76
2022/01/15 01:55:14;;;;;;;30.58;9.85;;;6.40;99.90;;;;;;5134778;27;20059;-76
2022/01/15 01:57:41;;;;;;;60.97;11.38;;;6.40;99.90;;;;;;5133765;27;20035;-76
2022/01/15 02:00:09;;;;;;;27.33;9.90;;;6.40;99.90;;;;;;5133279;27;20047;-76
2022/01/15 02:02:35;;;;;;;28.10;9.95;;;6.40;99.90;;;;;;5133367;27;20086;-76
2022/01/15 02:05:02;;;;;;;37.40;11.27;;;6.40;99.90;;;;;;5124802;27;20067;-76
2022/01/15 02:07:28;;;;;;;44.47;10.65;;;6.40;99.90;;;;;;5114124;28;20040;-76
2022/01/15 02:09:55;;;;;;;28.58;9.45;;;6.30;99.90;;;;;;5114004;28;20040;-76
2022/01/15 02:12:21;;;;;;;26.85;9.48;;;6.30;99.90;;;;;;5111716;28;20053;-76
2022/01/15 02:14:47;;;;;;;36.10;10.52;;;6.30;99.90;;;;;;5132550;28;20085;-76
2022/01/15 02:17:17;;;;;;;33.28;9.85;;;6.30;99.90;;;;;;5133182;28;20499;-76
2022/01/15 02:20:08;;;;;;;27.58;9.73;;;6.30;99.90;;;;;;5131506;27;20058;-76
2022/01/15 02:25:16;;;;;;;23.08;8.75;;;6.30;99.90;;;;;;5136526;27;20043;-76
2022/01/15 02:27:42;;;;;;;64.05;11.85;;;6.30;99.90;;;;;;5136762;27;20054;-76
2022/01/15 02:30:08;;;;;;;48.10;10.70;;;6.30;99.90;;;;;;5136988;27;20082;-76
2022/01/15 02:32:34;;;;;;;49.70;12.52;;;6.30;99.90;;;;;;5136564;27;20047;-76
2022/01/15 02:35:02;;;;;;;19.45;8.55;;;6.30;99.90;;;;;;5129780;27;20050;-76
2022/01/15 02:37:31;;;;;;;16.70;7.35;;;6.30;99.90;;;;;;5117876;27;20109;-76
2022/01/15 02:39:57;;;;;;;26.67;9.43;;;6.30;99.90;;;;;;5115734;28;20046;-76
2022/01/15 02:42:26;;;;;;;93.68;13.90;;;6.30;99.90;;;;;;5116530;28;20127;-76
2022/01/15 02:45:00;;;;;;;56.33;10.98;;;6.30;99.90;;;;;;5116496;28;20507;-76
2022/01/15 02:50:11;;;;;;;26.70;6.85;;;6.30;99.90;;;;;;5124237;27;20043;-76
2022/01/15 02:52:37;;;;;;;34.00;9.90;;;6.30;99.90;;;;;;5123839;27;20044;-76
2022/01/15 02:55:03;;;;;;;20.52;8.07;;;6.30;99.90;;;;;;5115857;28;20047;-76
2022/01/15 02:57:28;;;;;;;26.48;8.20;;;6.30;99.90;;;;;;5116232;28;20035;-76
2022/01/15 02:59:54;;;;;;;20.65;7.63;;;6.30;99.90;;;;;;5116536;28;20043;-76
2022/01/15 03:02:20;;;;;;;43.95;9.80;;;6.30;99.90;;;;;;5115252;28;20498;-76
2022/01/15 03:04:45;;;;;;;20.90;8.10;;;6.30;99.90;;;;;;5104059;27;20034;-76
2022/01/15 03:07:11;;;;;;;53.67;9.90;;;6.30;99.90;;;;;;5135747;27;20486;-76
2022/01/15 03:09:40;;;;;;;66.32;12.07;;;6.30;99.90;;;;;;5136598;27;20109;-76
2022/01/15 03:12:07;;;;;;;47.55;11.13;;;6.30;99.90;;;;;;5136494;27;20090;-76
2022/01/15 03:14:32;;;;;;;24.05;8.43;;;6.30;99.90;;;;;;5118463;27;20055;-76
2022/01/15 03:16:58;;;;;;;20.33;7.63;;;6.30;99.90;;;;;;5119233;27;20042;-76
2022/01/15 03:19:24;;;;;;;13.10;5.50;;;6.30;99.90;;;;;;5137071;27;20040;-76
2022/01/15 03:21:50;;;;;;;10.52;4.70;;;6.30;99.90;;;;;;5135354;27;20075;-76
2022/01/15 03:24:15;;;;;;;10.00;4.28;;;6.30;99.90;;;;;;5136584;27;20096;-76
2022/01/15 03:26:41;;;;;;;11.48;5.35;;;6.30;99.90;;;;;;5137646;27;20043;-76
2022/01/15 03:29:07;;;;;;;8.32;3.63;;;6.30;99.90;;;;;;5135280;27;20119;-76
2022/01/15 03:31:32;;;;;;;4.65;2.88;;;6.30;99.90;;;;;;5135454;27;20054;-76
2022/01/15 03:33:58;;;;;;;4.47;2.95;;;6.30;99.90;;;;;;5118241;27;20129;-76
2022/01/15 03:36:24;;;;;;;4.85;3.13;;;6.20;99.90;;;;;;5099402;28;20052;-76
2022/01/15 03:38:49;;;;;;;4.70;2.72;;;6.20;99.90;;;;;;5115545;28;20125;-76
2022/01/15 03:41:15;;;;;;;4.68;2.80;;;6.20;99.90;;;;;;5115480;28;20047;-76
2022/01/15 03:43:41;;;;;;;6.03;2.80;;;6.20;99.90;;;;;;5115648;28;20043;-76
2022/01/15 03:46:06;;;;;;;8.68;3.17;;;6.20;99.90;;;;;;5115130;28;20147;-76
2022/01/15 03:48:33;;;;;;;12.68;3.63;;;6.20;99.90;;;;;;5115651;28;20057;-76
2022/01/15 03:50:59;;;;;;;13.82;3.55;;;6.20;99.90;;;;;;5129420;27;20047;-76
2022/01/15 03:53:25;;;;;;;10.80;3.40;;;6.20;99.90;;;;;;5116039;27;20047;-76
2022/01/15 03:55:51;;;;;;;6.20;3.22;;;6.20;99.90;;;;;;5115324;28;20051;-76
2022/01/15 03:58:18;;;;;;;9.40;3.80;;;6.20;99.90;;;;;;5114142;28;20479;-76
2022/01/15 04:00:43;;;;;;;8.82;3.30;;;6.10;99.90;;;;;;5114825;28;20054;-76
2022/01/15 04:03:09;;;;;;;6.15;3.40;;;6.10;99.90;;;;;;5114991;28;20130;-76
2022/01/15 04:05:35;;;;;;;4.93;2.90;;;6.20;99.90;;;;;;5126804;27;20118;-76
2022/01/15 04:08:01;;;;;;;5.38;3.08;;;6.20;99.90;;;;;;5135430;27;20486;-76
2022/01/15 04:10:27;;;;;;;7.78;3.20;;;6.10;99.90;;;;;;5134709;27;20035;-76
2022/01/15 04:12:53;;;;;;;11.50;3.80;;;6.10;99.90;;;;;;5136564;27;20510;-76
2022/01/15 04:15:19;;;;;;;9.43;3.83;;;6.10;99.90;;;;;;5136641;27;20036;-76
2022/01/15 04:17:47;;;;;;;10.40;3.28;;;6.10;99.90;;;;;;5134385;27;20085;-76
2022/01/15 04:20:18;;;;;;;11.55;3.35;;;6.20;99.90;;;;;;5128484;27;20058;-76
2022/01/15 04:22:43;;;;;;;6.57;2.78;;;6.00;99.90;;;;;;5114703;28;20043;-76
2022/01/15 04:25:09;;;;;;;4.13;2.50;;;6.00;99.90;;;;;;5114951;28;20055;-76
2022/01/15 04:27:37;;;;;;;5.88;2.88;;;6.10;99.90;;;;;;5114607;28;20055;-76
2022/01/15 04:30:04;;;;;;;6.80;3.08;;;6.00;99.90;;;;;;5115839;28;20138;-76
2022/01/15 04:32:30;;;;;;;6.25;3.10;;;6.00;99.90;;;;;;5114765;28;20044;-76
2022/01/15 04:34:57;;;;;;;3.75;2.50;;;6.10;99.90;;;;;;5120338;27;20486;-76
2022/01/15 04:37:24;;;;;;;4.75;3.10;;;6.00;99.90;;;;;;5134930;27;20107;-76
2022/01/15 04:39:51;;;;;;;4.10;2.85;;;6.00;99.90;;;;;;5133905;27;20090;-76
2022/01/15 04:42:20;;;;;;;7.55;2.92;;;6.10;99.90;;;;;;5134651;27;20047;-76
2022/01/15 04:44:46;;;;;;;10.05;3.17;;;6.10;99.90;;;;;;5134313;27;20500;-76
2022/01/15 04:47:12;;;;;;;5.03;3.00;;;6.00;99.90;;;;;;5133801;27;20043;-76
2022/01/15 04:49:38;;;;;;;5.63;3.25;;;6.00;99.90;;;;;;5130807;27;20494;-76
2022/01/15 04:52:04;;;;;;;4.38;2.88;;;6.00;99.90;;;;;;5125636;27;20043;-76
2022/01/15 04:54:30;;;;;;;3.65;2.80;;;6.00;99.90;;;;;;5113304;28;20044;-76
2022/01/15 04:56:56;;;;;;;4.18;2.35;;;6.00;99.90;;;;;;5114039;28;20054;-76
2022/01/15 04:59:23;;;;;;;5.75;3.05;;;6.00;99.90;;;;;;5113645;28;20433;-76
2022/01/15 05:01:50;;;;;;;4.22;2.58;;;6.00;99.90;;;;;;5113056;28;20051;-76
2022/01/15 05:04:16;;;;;;;4.55;2.33;;;6.00;99.90;;;;;;5113965;28;20471;-76
2022/01/15 05:06:42;;;;;;;5.07;3.28;;;6.00;99.90;;;;;;5114283;28;20035;-76
2022/01/15 05:09:08;;;;;;;4.97;2.55;;;6.00;99.90;;;;;;5114948;28;20506;-76
2022/01/15 05:12:00;;;;;;;5.20;2.58;;;6.00;99.90;;;;;;5113471;28;20043;-76
2022/01/15 05:14:25;;;;;;;3.90;2.60;;;6.00;99.90;;;;;;5129909;27;20434;-76
2022/01/15 05:16:51;;;;;;;5.68;2.63;;;5.90;99.90;;;;;;5134181;27;20126;-76
2022/01/15 05:19:17;;;;;;;7.07;2.28;;;6.00;99.90;;;;;;5133240;27;20035;-76
2022/01/15 05:21:42;;;;;;;5.35;2.85;;;5.90;99.90;;;;;;5133515;27;20088;-76
2022/01/15 05:24:08;;;;;;;5.13;2.65;;;5.90;99.90;;;;;;5133863;27;20393;-76
2022/01/15 05:26:34;;;;;;;5.50;2.45;;;5.90;99.90;;;;;;5135014;27;20039;-76
2022/01/15 05:29:01;;;;;;;4.18;2.50;;;5.90;99.90;;;;;;5120333;27;20046;-76
2022/01/15 05:31:26;;;;;;;4.95;2.45;;;5.90;99.90;;;;;;5114416;28;20399;-76
2022/01/15 05:33:53;;;;;;;5.13;2.63;;;5.90;99.90;;;;;;5113337;28;20047;-76
2022/01/15 05:36:18;;;;;;;6.63;2.88;;;5.90;99.90;;;;;;5131216;27;20127;-76
2022/01/15 05:38:44;;;;;;;4.80;2.25;;;5.90;99.90;;;;;;5116776;27;20074;-76
2022/01/15 05:41:10;;;;;;;4.63;2.90;;;5.90;99.90;;;;;;5133629;27;20487;-76
2022/01/15 05:43:36;;;;;;;4.18;2.40;;;5.90;99.90;;;;;;5132706;27;20073;-76
2022/01/15 05:46:01;;;;;;;6.22;2.97;;;5.90;99.90;;;;;;5133356;27;20061;-76
2022/01/15 05:48:27;;;;;;;7.47;2.80;;;5.90;99.90;;;;;;5133572;27;20119;-76
2022/01/15 05:50:53;;;;;;;6.85;2.97;;;5.90;99.90;;;;;;5118210;27;20058;-76
2022/01/15 05:53:19;;;;;;;7.85;2.55;;;5.90;99.90;;;;;;5112830;28;20469;-76
2022/01/15 05:55:45;;;;;;;4.38;2.53;;;5.90;99.90;;;;;;5112408;28;20096;-76
2022/01/15 05:58:10;;;;;;;4.95;2.80;;;6.50;99.90;;;;;;5113718;28;20047;-76
2022/01/15 06:00:36;;;;;;;6.07;2.85;;;5.80;99.90;;;;;;5121894;27;20550;-76
2022/01/15 06:03:02;;;;;;;9.30;3.60;;;5.80;99.90;;;;;;5133793;27;20042;-76
2022/01/15 06:05:28;;;;;;;4.88;3.28;;;5.80;99.90;;;;;;5122117;27;20067;-76
2022/01/15 06:07:54;;;;;;;6.00;3.40;;;5.80;99.90;;;;;;5112692;28;20083;-76
2022/01/15 06:10:20;;;;;;;5.75;3.30;;;5.80;99.90;;;;;;5111790;28;20057;-76
2022/01/15 06:12:46;;;;;;;4.13;2.78;;;5.90;99.90;;;;;;5115607;28;20053;-76
2022/01/15 06:15:14;;;;;;;4.68;2.88;;;5.80;99.90;;;;;;5133174;28;20049;-76
2022/01/15 06:17:40;;;;;;;5.50;2.97;;;5.80;99.90;;;;;;5132698;28;20047;-76
2022/01/15 06:20:07;;;;;;;3.88;2.67;;;5.80;99.90;;;;;;5132730;28;20046;-76
2022/01/15 06:22:33;;;;;;;3.97;2.72;;;5.80;99.90;;;;;;5132566;28;20051;-76
2022/01/15 06:24:58;;;;;;;4.50;2.90;;;5.80;99.90;;;;;;5132356;28;20043;-76
2022/01/15 06:27:24;;;;;;;7.47;2.60;;;5.80;99.90;;;;;;5133409;28;20039;-76
2022/01/15 06:29:50;;;;;;;7.43;3.20;;;5.80;99.90;;;;;;5114013;28;20498;-76
2022/01/15 06:32:15;;;;;;;5.45;3.25;;;5.80;99.90;;;;;;5111640;28;20043;-76
2022/01/15 06:34:41;;;;;;;4.90;3.00;;;5.80;99.90;;;;;;5116358;28;20043;-76
2022/01/15 06:37:07;;;;;;;6.07;3.80;;;5.80;99.90;;;;;;5131468;28;20050;-76
2022/01/15 06:39:33;;;;;;;8.00;3.60;;;5.80;99.90;;;;;;5132418;28;20489;-76
2022/01/15 06:42:00;;;;;;;6.15;4.05;;;5.80;99.90;;;;;;5132966;28;20078;-76
2022/01/15 06:44:26;;;;;;;8.93;4.28;;;5.70;99.90;;;;;;5133223;28;20092;-76
2022/01/15 06:46:51;;;;;;;7.50;4.13;;;5.80;99.90;;;;;;5131418;28;20448;-76
2022/01/15 06:49:17;;;;;;;6.30;4.10;;;5.80;99.90;;;;;;5114990;28;20047;-76
2022/01/15 06:51:43;;;;;;;6.97;4.25;;;5.70;99.90;;;;;;5116745;28;20393;-76
2022/01/15 06:54:08;;;;;;;9.50;4.80;;;5.70;99.90;;;;;;5132051;28;20049;-76
2022/01/15 06:56:34;;;;;;;7.47;4.35;;;5.80;99.90;;;;;;5116016;28;20121;-76
2022/01/15 06:59:00;;;;;;;12.85;4.07;;;5.80;99.90;;;;;;5132865;28;20445;-76
2022/01/15 07:01:26;;;;;;;7.93;4.20;;;5.70;99.90;;;;;;5114741;28;20047;-76
2022/01/15 07:03:51;;;;;;;6.47;3.92;;;5.80;99.90;;;;;;5132639;28;20043;-76
2022/01/15 07:06:17;;;;;;;7.78;3.97;;;5.70;99.90;;;;;;5097556;28;20051;-76
2022/01/15 07:08:43;;;;;;;7.18;4.05;;;5.70;99.90;;;;;;5115923;28;20047;-76
2022/01/15 07:11:08;;;;;;;8.15;3.47;;;5.70;99.90;;;;;;5099260;28;20090;-76
2022/01/15 07:13:34;;;;;;;5.97;3.53;;;5.70;99.90;;;;;;5124825;27;20375;-76
2022/01/15 07:16:00;;;;;;;6.07;3.45;;;5.70;99.90;;;;;;5136422;27;20043;-76
2022/01/15 07:18:26;;;;;;;6.72;3.85;;;5.70;99.90;;;;;;5136341;27;20039;-76
2022/01/15 07:20:52;;;;;;;6.32;3.75;;;5.70;99.90;;;;;;5136296;27;20050;-76
2022/01/15 07:23:18;;;;;;;6.40;4.07;;;5.70;99.90;;;;;;5136257;27;20051;-76
2022/01/15 07:25:44;;;;;;;5.72;4.00;;;5.70;99.90;;;;;;5135734;27;20116;-76
2022/01/15 07:28:09;;;;;;;5.97;3.42;;;5.60;99.90;;;;;;5135648;27;20071;-76
2022/01/15 07:30:35;;;;;;;4.82;3.63;;;5.70;99.90;;;;;;5136479;27;20482;-76
2022/01/15 07:33:01;;;;;;;4.47;3.25;;;5.60;99.90;;;;;;5131298;27;20071;-76
2022/01/15 07:35:27;;;;;;;5.18;3.28;;;5.60;99.90;;;;;;5125228;27;20039;-76
2022/01/15 07:37:54;;;;;;;6.22;4.00;;;5.60;99.90;;;;;;5137273;27;20482;-76
2022/01/15 07:40:19;;;;;;;4.80;3.08;;;5.60;99.90;;;;;;5136221;27;20398;-76
2022/01/15 07:42:45;;;;;;;5.07;3.22;;;5.60;99.90;;;;;;5134993;27;20122;-75
2022/01/15 07:45:14;;;;;;;4.72;2.95;;;5.60;99.90;;;;;;5137000;27;20086;-76
2022/01/15 07:47:40;;;;;;;4.68;3.17;;;5.60;99.90;;;;;;5154612;27;20054;-76
2022/01/15 07:50:12;;;;;;;5.93;3.38;;;5.60;99.90;;;;;;5130696;27;20105;-76
2022/01/15 07:52:38;;;;;;;6.82;3.30;;;5.60;99.90;;;;;;5101774;27;20104;-75
2022/01/15 07:55:05;;;;;;;5.63;3.35;;;5.50;99.90;;;;;;5118681;27;20054;-75
2022/01/15 07:57:31;;;;;;;7.15;4.10;;;5.50;99.90;;;;;;5136087;27;20039;-76
2022/01/15 07:59:57;;;;;;;5.95;3.63;;;5.50;99.90;;;;;;5118492;27;20039;-75
2022/01/15 08:02:23;;;;;;;6.38;3.38;;;5.50;99.90;;;;;;5118109;27;20049;-75
2022/01/15 08:04:49;;;;;;;6.47;3.88;;;5.50;99.90;;;;;;5122931;27;20042;-75
2022/01/15 08:07:14;;;;;;;6.13;3.80;;;5.50;99.90;;;;;;5157590;27;20031;-75
2022/01/15 08:09:40;;;;;;;5.97;3.88;;;5.50;99.90;;;;;;5120997;27;20042;-75
2022/01/15 08:12:06;;;;;;;6.30;3.95;;;5.50;99.90;;;;;;5138768;27;20103;-75
2022/01/15 08:14:32;;;;;;;6.18;3.83;;;5.50;99.90;;;;;;5138614;27;20047;-75
2022/01/15 08:16:58;;;;;;;6.47;4.07;;;5.50;99.90;;;;;;5137815;27;20050;-76
2022/01/15 08:19:24;;;;;;;7.78;3.97;;;5.50;99.90;;;;;;5120038;27;20041;-76
2022/01/15 08:21:49;;;;;;;6.35;4.35;;;5.70;99.90;;;;;;5121503;27;20121;-76
2022/01/15 08:24:15;;;;;;;8.18;4.72;;;5.50;99.90;;;;;;5137711;27;20046;-75
2022/01/15 08:26:41;;;;;;;9.27;4.82;;;5.50;99.90;;;;;;5138703;27;20046;-76
2022/01/15 08:29:07;;;;;;;9.80;5.28;;;5.50;99.90;;;;;;5138410;27;20038;-76
2022/01/15 08:31:33;;;;;;;9.30;4.97;;;5.50;99.90;;;;;;5137479;27;20129;-76
2022/01/15 08:33:58;;;;;;;7.15;4.55;;;5.50;99.90;;;;;;5137797;27;20118;-75
2022/01/15 08:36:24;;;;;;;8.77;5.30;;;5.40;99.90;;;;;;5155958;27;20049;-75
2022/01/15 08:38:50;;;;;;;10.77;6.25;;;5.50;99.90;;;;;;5137349;27;20129;-75
2022/01/15 08:41:16;;;;;;;8.98;5.22;;;5.50;99.90;;;;;;5138287;27;20050;-75
2022/01/15 08:43:42;;;;;;;10.35;5.95;;;5.50;99.90;;;;;;5138447;27;20046;-75
2022/01/15 08:46:08;;;;;;;11.20;6.57;;;5.50;99.90;;;;;;5137064;27;20115;-76
2022/01/15 08:48:34;;;;;;;11.23;6.00;;;5.50;99.90;;;;;;5137980;27;20050;-76
2022/01/15 08:51:00;;;;;;;12.95;5.85;;;5.50;99.90;;;;;;5141360;27;20047;-76
2022/01/15 08:53:26;;;;;;;12.13;6.05;;;5.50;99.90;;;;;;5116719;27;20042;-76
2022/01/15 08:55:53;;;;;;;13.50;7.45;;;5.50;99.90;;;;;;5100707;27;20043;-76
2022/01/15 08:58:20;;;;;;;14.27;7.30;;;5.50;99.90;;;;;;5135773;27;20047;-76
2022/01/15 09:00:47;;;;;;;18.15;7.72;;;5.50;99.90;;;;;;5116374;27;20094;-76
2022/01/15 09:03:13;;;;;;;14.23;7.40;;;5.50;99.90;;;;;;5117232;27;20055;-76
2022/01/15 09:05:39;;;;;;;15.38;7.53;;;5.50;99.90;;;;;;5129378;27;20045;-76
2022/01/15 09:08:06;;;;;;;12.57;6.57;;;5.50;99.90;;;;;;5137220;27;20382;-76
2022/01/15 09:10:32;;;;;;;14.05;7.47;;;5.50;99.90;;;;;;5156812;27;20035;-76
2022/01/15 09:12:58;;;;;;;11.40;6.95;;;5.60;99.90;;;;;;5136820;27;20057;-76
2022/01/15 09:15:24;;;;;;;12.27;7.07;;;5.50;99.90;;;;;;5137433;27;20075;-75
2022/01/15 09:17:50;;;;;;;13.38;6.55;;;5.60;99.90;;;;;;5137558;27;20106;-75
2022/01/15 09:20:16;;;;;;;14.05;7.30;;;5.50;99.90;;;;;;5122905;27;20153;-76
2022/01/15 09:22:42;;;;;;;14.90;7.00;;;5.60;99.90;;;;;;5116906;27;20108;-75
2022/01/15 09:25:08;;;;;;;14.18;7.70;;;5.50;99.90;;;;;;5116715;27;20035;-74
2022/01/15 09:30:19;;;;;;;11.43;5.88;;;5.60;99.90;;;;;;5116720;27;20475;-74
2022/01/15 09:32:51;;;;;;;10.95;6.32;;;5.60;99.90;;;;;;5116943;27;20077;-74
2022/01/15 09:35:21;;;;;;;13.52;6.75;;;5.50;99.90;;;;;;5124798;27;20061;-74
2022/01/15 09:37:49;;;;;;;11.65;6.63;;;5.50;99.90;;;;;;5136979;27;20046;-74
2022/01/15 09:40:16;;;;;;;18.20;7.50;;;5.60;99.90;;;;;;5137048;27;20089;-75
2022/01/15 09:42:44;;;;;;;10.40;6.72;;;5.60;99.90;;;;;;5136270;27;20560;-74
2022/01/15 09:45:11;;;;;;;21.17;7.32;;;5.60;99.90;;;;;;5155638;27;20448;-74
2022/01/15 09:47:37;;;;;;;15.82;7.05;;;5.60;99.90;;;;;;5155407;27;20054;-74
2022/01/15 09:50:05;;;;;;;15.45;6.57;;;5.60;99.90;;;;;;5128946;27;20047;-75
2022/01/15 09:52:32;;;;;;;14.15;6.90;;;5.60;99.90;;;;;;5145669;27;20053;-74
2022/01/15 09:54:59;;;;;;;12.52;6.63;;;5.60;99.90;;;;;;5154647;27;20047;-74
2022/01/15 09:57:25;;;;;;;16.90;8.00;;;5.60;99.90;;;;;;5136794;27;20078;-74
2022/01/15 09:59:51;;;;;;;12.95;6.70;;;5.60;99.90;;;;;;5137126;27;20082;-75
2022/01/15 10:02:17;;;;;;;12.60;7.13;;;5.60;99.90;;;;;;5135974;27;20589;-74
2022/01/15 10:04:43;;;;;;;13.45;6.95;;;5.60;99.90;;;;;;5132548;27;20039;-75
2022/01/15 10:07:15;;;;;;;14.30;8.10;;;5.60;99.90;;;;;;5115840;27;20054;-76
2022/01/15 10:09:42;;;;;;;16.13;8.18;;;5.60;99.90;;;;;;5115550;27;20367;-75
2022/01/15 10:12:08;;;;;;;20.05;8.50;;;5.60;99.90;;;;;;5115963;28;20498;-75
2022/01/15 10:14:36;;;;;;;17.60;7.63;;;5.60;99.90;;;;;;5134502;27;20069;-75
2022/01/15 10:17:26;;;;;;;20.52;7.90;;;5.60;99.90;;;;;;5154293;27;20208;-75
2022/01/15 10:19:52;;;;;;;17.23;8.77;;;5.60;99.90;;;;;;5155785;27;20053;-75
2022/01/15 10:22:21;;;;;;;21.88;9.13;;;5.50;99.90;;;;;;5136907;27;20034;-75
2022/01/15 10:24:54;;;;;;;19.20;8.93;;;5.50;99.90;;;;;;5153597;27;20039;-75
2022/01/15 10:27:21;;;;;;;21.08;9.40;;;5.60;99.90;;;;;;5137136;27;20042;-75
2022/01/15 10:29:52;;;;;;;20.80;9.18;;;5.60;99.90;;;;;;5136277;27;20043;-75
2022/01/15 10:32:19;;;;;;;22.52;9.85;;;5.60;99.90;;;;;;5135524;27;20050;-75
2022/01/15 10:34:45;;;;;;;19.88;9.18;;;5.50;99.90;;;;;;5130366;27;20047;-75
2022/01/15 10:37:17;;;;;;;20.35;10.07;;;5.50;99.90;;;;;;5135887;27;20047;-75
2022/01/15 10:39:59;;;;;;;22.60;10.15;;;5.50;99.90;;;;;;5151194;27;20099;-75
2022/01/15 10:42:26;;;;;;;19.50;10.07;;;5.60;99.90;;;;;;5138921;27;20043;-75
2022/01/15 10:44:57;;;;;;;21.40;9.95;;;5.50;99.90;;;;;;5139741;27;20082;-75
2022/01/15 10:47:27;;;;;;;23.73;10.05;;;5.50;99.90;;;;;;5140485;27;20087;-75
2022/01/15 10:49:58;;;;;;;17.58;9.60;;;5.50;99.90;;;;;;5140579;27;20043;-75
2022/01/15 10:52:26;;;;;;;28.10;10.98;;;5.50;99.90;;;;;;5135980;27;20075;-75
2022/01/15 10:55:05;;;;;;;18.92;9.43;;;5.50;99.90;;;;;;5138024;27;20410;-75
2022/01/15 10:57:37;;;;;;;22.02;10.65;;;5.50;99.90;;;;;;5139417;27;20046;-75
2022/01/15 11:00:09;;;;;;;23.55;10.65;;;5.50;99.90;;;;;;5139478;27;20489;-75
2022/01/15 11:02:35;;;;;;;27.63;11.32;;;5.50;99.90;;;;;;5140546;27;20397;-75
2022/01/15 11:05:03;;;;;;;25.63;12.15;;;5.50;99.90;;;;;;5157976;27;20035;-76
2022/01/15 11:07:36;;;;;;;25.75;11.18;;;5.50;99.90;;;;;;5139054;27;20486;-77
2022/01/15 11:10:04;;;;;;;26.75;11.98;;;5.50;99.90;;;;;;5140197;27;20087;-77
2022/01/15 11:12:31;;;;;;;24.98;11.05;;;5.50;99.90;;;;;;5157625;27;20412;-76
2022/01/15 11:14:56;;;;;;;27.02;12.73;;;5.50;99.90;;;;;;5158605;27;20039;-76
2022/01/15 11:17:22;;;;;;;24.30;12.35;;;5.50;99.90;;;;;;5140141;27;20048;-76
2022/01/15 11:19:52;;;;;;;31.75;13.13;;;5.50;99.90;;;;;;5157555;27;20035;-76
2022/01/15 11:22:23;;;;;;;30.70;15.38;;;5.50;99.90;;;;;;5139329;27;20099;-77
2022/01/15 11:24:50;;;;;;;30.67;14.90;;;5.50;99.90;;;;;;5139455;27;20953;-77
2022/01/15 11:27:16;;;;;;;22.60;12.85;;;5.50;99.90;;;;;;5157477;27;20114;-78
2022/01/15 11:29:44;;;;;;;25.45;12.60;;;5.50;99.90;;;;;;5139753;27;20050;-78
2022/01/15 11:32:14;;;;;;;28.00;13.00;;;5.50;99.90;;;;;;5139437;27;20047;-78
2022/01/15 11:34:41;;;;;;;26.65;13.35;;;5.50;99.90;;;;;;5157355;27;20046;-78
2022/01/15 11:37:19;;;;;;;30.13;14.50;;;5.50;99.90;;;;;;5139172;27;20078;-78
2022/01/15 11:39:46;;;;;;;26.23;13.88;;;5.50;99.90;;;;;;5158016;27;20087;-78
2022/01/15 11:42:35;;;;;;;23.33;12.18;;;5.50;99.90;;;;;;5139053;27;20390;-78
2022/01/15 11:45:02;;;;;;;28.17;13.85;;;5.60;99.90;;;;;;5157775;27;20113;-78
2022/01/15 11:47:28;;;;;;;23.45;12.68;;;5.60;99.90;;;;;;5138328;27;20054;-77
2022/01/15 11:49:57;;;;;;;25.75;13.73;;;5.60;99.90;;;;;;5139018;27;20135;-77
2022/01/15 11:52:23;;;;;;;25.33;12.98;;;5.60;99.90;;;;;;5101284;27;20058;-77
2022/01/15 11:54:49;;;;;;;20.48;12.63;;;5.60;99.90;;;;;;5135521;27;20085;-77
2022/01/15 11:57:33;;;;;;;20.63;11.75;;;5.60;99.90;;;;;;5137003;27;20043;-77
2022/01/15 12:00:01;;;;;;;28.58;13.70;;;5.70;99.90;;;;;;5151512;27;20099;-77
2022/01/15 12:02:38;;;;;;;29.52;13.82;;;6.00;99.90;;;;;;5138204;27;20099;-77
2022/01/15 12:05:17;;;;;;;24.55;13.02;;;5.70;99.90;;;;;;5138840;27;20089;-77
2022/01/15 12:07:46;;;;;;;23.70;12.75;;;5.70;99.90;;;;;;5138754;27;20049;-77
2022/01/15 12:10:14;;;;;;;27.42;12.63;;;5.70;99.90;;;;;;5138216;27;20394;-76
2022/01/15 12:12:52;;;;;;;23.63;12.55;;;5.70;99.90;;;;;;5138628;27;20374;-79
2022/01/15 12:15:27;;;;;;;21.98;12.73;;;5.70;99.90;;;;;;5139218;27;20102;-79
2022/01/15 12:17:54;;;;;;;22.35;12.82;;;5.60;99.90;;;;;;5137899;27;20050;-77
2022/01/15 12:20:21;;;;;;;21.73;11.68;;;5.70;99.90;;;;;;5138574;27;20528;-79
2022/01/15 12:22:49;;;;;;;21.17;11.00;;;5.60;99.90;;;;;;5137961;27;20121;-79
2022/01/15 12:25:18;;;;;;;19.85;11.18;;;5.60;99.90;;;;;;5138590;27;20179;-79
2022/01/15 12:27:54;;;;;;;18.98;11.00;;;5.70;99.90;;;;;;5157159;27;20501;-79
2022/01/15 12:30:20;;;;;;;19.70;11.25;;;5.60;99.90;;;;;;5137975;27;20051;-76
2022/01/15 12:32:49;;;;;;;19.92;11.57;;;5.60;99.90;;;;;;5138500;27;20047;-76
2022/01/15 12:35:22;;;;;;;17.23;10.95;;;5.60;99.90;;;;;;5156759;27;20367;-76
2022/01/15 12:37:58;;;;;;;16.50;11.60;;;5.50;99.90;;;;;;5155739;27;20121;-76
2022/01/15 12:40:39;;;;;;;22.25;12.52;;;5.50;99.90;;;;;;5156962;27;20039;-76
2022/01/15 12:43:30;;;;;;;23.63;12.00;;;5.50;99.90;;;;;;5138065;27;20054;-76
2022/01/15 12:46:26;;;;;;;19.80;11.90;;;5.50;99.90;;;;;;5119714;27;20053;-79
2022/01/15 12:48:53;;;;;;;20.63;12.45;;;5.50;99.90;;;;;;5116401;27;20058;-76
2022/01/15 12:51:21;;;;;;;20.23;13.13;;;5.50;99.90;;;;;;5137000;27;20051;-76
2022/01/15 12:53:57;;;;;;;21.73;12.70;;;5.50;99.90;;;;;;5138087;27;20039;-76
2022/01/15 12:56:23;;;;;;;19.98;12.38;;;5.50;99.90;;;;;;5137978;27;20047;-76
2022/01/15 12:58:53;;;;;;;21.30;13.68;;;5.60;99.90;;;;;;5137600;27;20050;-76
2022/01/15 13:01:22;;;;;;;22.77;13.80;;;5.60;99.90;;;;;;5137972;27;20183;-77
2022/01/15 13:03:48;;;;;;;23.90;15.10;;;5.60;99.90;;;;;;5132895;27;20046;-76
2022/01/15 13:06:14;;;;;;;22.75;14.65;;;5.60;99.90;;;;;;5119697;27;20054;-76
2022/01/15 13:08:43;;;;;;;21.50;14.10;;;5.60;99.90;;;;;;5156280;27;20507;-76
2022/01/15 13:13:45;;;;;;;21.05;13.88;;;5.60;99.90;;;;;;5136879;27;20081;-78
2022/01/15 13:16:13;;;;;;;22.90;12.77;;;5.60;99.90;;;;;;5137906;27;20042;-76
2022/01/15 13:18:47;;;;;;;19.15;12.32;;;5.50;99.90;;;;;;5156190;27;20042;-74
2022/01/15 13:21:28;;;;;;;16.05;9.80;;;5.50;99.90;;;;;;5155116;27;20042;-76